createdAt,value
2019-03-19T00:01:44.986Z,1.40
2019-03-19T00:04:13.858Z,1.30
2019-03-19T00:06:42.551Z,1.20
2019-03-19T00:09:11.254Z,1.10
2019-03-19T00:11:39.958Z,1.10
2019-03-19T00:14:08.656Z,1.00
2019-03-19T00:16:37.408Z,1.00
2019-03-19T00:19:06.112Z,0.90
2019-03-19T00:21:34.836Z,0.80
2019-03-19T00:24:03.557Z,0.80
2019-03-19T00:26:32.290Z,0.80
2019-03-19T00:29:00.920Z,0.80
2019-03-19T00:31:29.620Z,0.80
2019-03-19T00:33:58.386Z,0.70
2019-03-19T00:36:27.024Z,0.60
2019-03-19T00:38:55.742Z,0.60
2019-03-19T00:41:24.415Z,0.60
2019-03-19T00:43:53.051Z,0.70
2019-03-19T00:46:21.726Z,0.70
2019-03-19T00:48:50.436Z,0.80
2019-03-19T00:51:19.176Z,0.80
2019-03-19T00:53:47.909Z,0.80
2019-03-19T00:56:17.461Z,0.60
2019-03-19T00:58:46.133Z,0.50
2019-03-19T01:01:14.903Z,0.40
2019-03-19T01:03:43.538Z,0.50
2019-03-19T01:06:12.212Z,0.40
2019-03-19T01:08:40.940Z,0.40
2019-03-19T01:11:09.624Z,0.50
2019-03-19T01:13:38.329Z,0.40
2019-03-19T01:16:07.223Z,0.40
2019-03-19T01:18:35.898Z,0.30
2019-03-19T01:21:04.684Z,0.20
2019-03-19T01:23:33.403Z,0.20
2019-03-19T01:26:02.200Z,0.20
2019-03-19T01:28:30.966Z,0.20
2019-03-19T01:30:59.831Z,0.20
2019-03-19T01:33:28.458Z,0.20
2019-03-19T01:35:57.160Z,0.20
2019-03-19T01:38:25.928Z,0.20
2019-03-19T01:40:54.625Z,0.20
2019-03-19T01:43:23.275Z,0.20
2019-03-19T01:45:52.035Z,0.20
2019-03-19T01:48:20.681Z,0.30
2019-03-19T01:50:49.262Z,0.20
2019-03-19T01:53:17.881Z,0.10
2019-03-19T01:55:46.653Z,0.00
2019-03-19T01:58:15.383Z,0.00
2019-03-19T02:00:44.105Z,-0.10
2019-03-19T02:03:12.896Z,-0.10
2019-03-19T02:05:41.604Z,0.00
2019-03-19T02:08:10.354Z,0.00
2019-03-19T02:10:39.066Z,0.00
2019-03-19T02:13:07.685Z,0.00
2019-03-19T02:15:36.325Z,0.10
2019-03-19T02:18:05.173Z,0.00
2019-03-19T02:20:34.666Z,-0.10
2019-03-19T02:23:04.731Z,-0.20
2019-03-19T02:25:33.545Z,-0.10
2019-03-19T02:28:02.147Z,-0.20
2019-03-19T02:30:31.019Z,-0.20
2019-03-19T02:32:59.584Z,-0.20
2019-03-19T02:35:28.332Z,-0.20
2019-03-19T02:37:56.919Z,-0.20
2019-03-19T02:40:25.685Z,-0.30
2019-03-19T02:42:54.344Z,-0.30
2019-03-19T02:45:23.111Z,-0.40
2019-03-19T02:47:51.700Z,-0.40
2019-03-19T02:50:20.474Z,-0.30
2019-03-19T02:52:49.138Z,-0.30
2019-03-19T02:55:17.885Z,-0.30
2019-03-19T02:57:46.517Z,-0.20
2019-03-19T03:00:17.369Z,-0.20
2019-03-19T03:02:46.201Z,-0.30
2019-03-19T03:05:17.067Z,-0.30
2019-03-19T03:07:45.848Z,-0.20
2019-03-19T03:10:15.186Z,-0.20
2019-03-19T03:12:43.958Z,-0.20
2019-03-19T03:15:13.701Z,-0.20
2019-03-19T03:17:42.491Z,-0.30
2019-03-19T03:20:15.937Z,-0.30
2019-03-19T03:22:44.660Z,-0.30
2019-03-19T03:25:14.473Z,-0.40
2019-03-19T03:27:43.130Z,-0.30
2019-03-19T03:30:14.835Z,-0.40
2019-03-19T03:32:43.650Z,-0.40
2019-03-19T03:35:12.816Z,-0.50
2019-03-19T03:37:41.585Z,-0.40
2019-03-19T03:40:13.166Z,-0.40
2019-03-19T03:42:43.254Z,-0.40
2019-03-19T03:45:13.528Z,-0.50
2019-03-19T03:47:42.298Z,-0.60
2019-03-19T03:50:13.813Z,-0.60
2019-03-19T03:52:42.635Z,-0.70
2019-03-19T03:55:12.948Z,-0.60
2019-03-19T03:57:41.648Z,-0.60
2019-03-19T04:00:13.165Z,-0.60
2019-03-19T04:02:44.661Z,-0.60
2019-03-19T04:05:12.801Z,-0.70
2019-03-19T04:07:41.549Z,-0.80
2019-03-19T04:10:12.603Z,-0.90
2019-03-19T04:12:41.465Z,-0.80
2019-03-19T04:15:12.448Z,-0.70
2019-03-19T04:17:41.232Z,-0.60
2019-03-19T04:20:11.914Z,-0.60
2019-03-19T04:22:40.765Z,-0.50
2019-03-19T04:25:10.846Z,-0.50
2019-03-19T04:27:40.623Z,-0.50
2019-03-19T04:30:13.318Z,-0.50
2019-03-19T04:32:42.095Z,-0.60
2019-03-19T04:35:11.107Z,-0.80
2019-03-19T04:37:39.763Z,-0.90
2019-03-19T04:40:10.682Z,-0.80
2019-03-19T04:42:39.542Z,-0.80
2019-03-19T04:45:10.615Z,-0.70
2019-03-19T04:47:42.261Z,-0.60
2019-03-19T04:50:12.746Z,-0.50
2019-03-19T04:52:41.543Z,-0.60
2019-03-19T04:55:12.166Z,-0.60
2019-03-19T04:57:40.885Z,-0.60
2019-03-19T05:00:12.720Z,-0.60
2019-03-19T05:02:41.463Z,-0.70
2019-03-19T05:05:11.533Z,-0.70
2019-03-19T05:07:40.362Z,-0.70
2019-03-19T05:10:12.273Z,-0.70
2019-03-19T05:12:41.099Z,-0.70
2019-03-19T05:15:10.673Z,-0.70
2019-03-19T05:17:39.437Z,-0.80
2019-03-19T05:20:11.599Z,-0.80
2019-03-19T05:22:40.326Z,-0.80
2019-03-19T05:25:09.959Z,-0.80
2019-03-19T05:27:38.766Z,-0.90
2019-03-19T05:30:10.776Z,-0.80
2019-03-19T05:32:39.437Z,-0.70
2019-03-19T05:35:09.505Z,-0.60
2019-03-19T05:37:38.368Z,-0.70
2019-03-19T05:40:09.799Z,-0.60
2019-03-19T05:42:38.547Z,-0.60
2019-03-19T05:45:10.231Z,-0.50
2019-03-19T05:47:40.511Z,-0.60
2019-03-19T05:50:12.581Z,-0.60
2019-03-19T05:52:42.785Z,-0.60
2019-03-19T05:55:11.783Z,-0.60
2019-03-19T05:57:48.718Z,-0.60
2019-03-19T06:00:13.733Z,-0.40
2019-03-19T06:02:42.506Z,-0.10
2019-03-19T06:05:12.286Z,0.20
2019-03-19T06:07:41.121Z,0.60
2019-03-19T06:10:14.079Z,1.00
2019-03-19T06:12:42.809Z,1.40
2019-03-19T06:15:13.241Z,1.70
2019-03-19T06:17:41.970Z,2.00
2019-03-19T06:20:12.644Z,2.20
2019-03-19T06:22:41.433Z,2.50
2019-03-19T06:25:11.624Z,2.90
2019-03-19T06:27:40.359Z,3.40
2019-03-19T06:30:12.050Z,4.00
2019-03-19T06:32:40.815Z,4.50
2019-03-19T06:35:11.041Z,5.00
2019-03-19T06:37:39.774Z,5.40
2019-03-19T06:40:11.952Z,5.80
2019-03-19T06:42:40.730Z,6.10
2019-03-19T06:45:12.419Z,6.30
2019-03-19T06:47:41.141Z,6.60
2019-03-19T06:50:12.713Z,6.80
2019-03-19T06:52:41.398Z,7.10
2019-03-19T06:55:12.166Z,7.20
2019-03-19T06:57:40.821Z,7.40
2019-03-19T07:00:12.372Z,7.70
2019-03-19T07:02:41.069Z,8.00
2019-03-19T07:05:10.302Z,8.20
2019-03-19T07:07:38.995Z,8.10
2019-03-19T07:10:10.621Z,8.00
2019-03-19T07:12:39.262Z,8.00
2019-03-19T07:15:11.122Z,8.20
2019-03-19T07:17:39.811Z,8.10
2019-03-19T07:20:11.340Z,8.30
2019-03-19T07:22:40.124Z,8.70
2019-03-19T07:25:09.845Z,9.20
2019-03-19T07:27:38.702Z,9.10
2019-03-19T07:30:10.482Z,9.20
2019-03-19T07:32:39.214Z,9.30
2019-03-19T07:35:08.195Z,9.50
2019-03-19T07:37:36.900Z,9.40
2019-03-19T07:40:08.420Z,9.60
2019-03-19T07:42:37.166Z,9.90
2019-03-19T07:45:09.268Z,10.30
2019-03-19T07:47:37.948Z,10.50
2019-03-19T07:50:09.769Z,10.90
2019-03-19T07:52:38.462Z,10.90
2019-03-19T07:55:07.357Z,10.80
2019-03-19T07:57:36.148Z,10.70
2019-03-19T08:00:07.701Z,10.70
2019-03-19T08:02:36.390Z,10.80
2019-03-19T08:05:07.835Z,10.70
2019-03-19T08:07:36.882Z,10.80
2019-03-19T08:10:08.327Z,11.10
2019-03-19T08:12:36.989Z,11.50
2019-03-19T08:15:08.914Z,11.90
2019-03-19T08:17:37.597Z,12.20
2019-03-19T08:20:09.440Z,12.20
2019-03-19T08:22:38.130Z,12.40
2019-03-19T08:25:09.274Z,12.80
2019-03-19T08:27:38.286Z,12.60
2019-03-19T08:30:09.976Z,13.40
2019-03-19T08:32:38.686Z,13.70
2019-03-19T08:35:07.754Z,13.40
2019-03-19T08:37:36.471Z,13.00
2019-03-19T08:40:08.031Z,13.40
2019-03-19T08:42:36.739Z,13.60
2019-03-19T08:45:08.482Z,13.80
2019-03-19T08:47:38.471Z,14.00
2019-03-19T08:50:10.226Z,13.30
2019-03-19T08:52:38.829Z,13.60
2019-03-19T08:55:07.549Z,14.00
2019-03-19T08:57:36.191Z,14.20
2019-03-19T09:00:07.689Z,13.80
2019-03-19T09:02:36.382Z,14.00
2019-03-19T09:05:07.712Z,13.90
2019-03-19T09:07:36.429Z,13.90
2019-03-19T09:10:08.051Z,14.10
2019-03-19T09:12:36.742Z,14.00
2019-03-19T09:15:08.245Z,14.00
2019-03-19T09:17:36.963Z,14.10
2019-03-19T09:20:08.476Z,14.50
2019-03-19T09:22:37.235Z,14.40
2019-03-19T09:25:07.545Z,14.70
2019-03-19T09:27:36.289Z,13.40
2019-03-19T09:30:07.977Z,11.60
2019-03-19T09:32:36.632Z,10.80
2019-03-19T09:35:06.399Z,10.40
2019-03-19T09:37:46.275Z,10.00
2019-03-19T09:40:16.258Z,9.70
2019-03-19T09:42:44.959Z,9.40
2019-03-19T09:45:15.915Z,9.10
2019-03-19T09:47:44.647Z,8.90
2019-03-19T09:50:16.230Z,8.60
2019-03-19T09:52:45.137Z,8.50
2019-03-19T09:55:14.492Z,8.90
2019-03-19T09:57:43.229Z,10.40
2019-03-19T10:00:14.742Z,11.70
2019-03-19T10:02:43.427Z,11.80
2019-03-19T10:05:12.257Z,12.40
2019-03-19T10:07:40.983Z,13.20
2019-03-19T10:10:12.454Z,13.50
2019-03-19T10:12:41.055Z,13.70
2019-03-19T10:15:10.247Z,14.00
2019-03-19T10:17:38.905Z,13.40
2019-03-19T10:20:10.435Z,13.40
2019-03-19T10:22:39.142Z,13.30
2019-03-19T10:25:10.886Z,13.30
2019-03-19T10:27:39.532Z,13.50
2019-03-19T10:30:11.077Z,13.50
2019-03-19T10:32:39.769Z,13.90
2019-03-19T10:35:09.162Z,14.20
2019-03-19T10:37:37.893Z,13.60
2019-03-19T10:40:08.668Z,12.80
2019-03-19T10:42:37.285Z,12.20
2019-03-19T10:45:08.822Z,12.30
2019-03-19T10:47:37.534Z,12.10
2019-03-19T10:50:09.102Z,11.80
2019-03-19T10:52:37.748Z,12.00
2019-03-19T10:55:06.994Z,12.20
2019-03-19T10:57:35.753Z,12.30
2019-03-19T11:00:08.700Z,12.30
2019-03-19T11:02:37.431Z,11.80
2019-03-19T11:05:09.348Z,12.10
2019-03-19T11:07:38.018Z,12.10
2019-03-19T11:10:10.254Z,11.00
2019-03-19T11:12:39.188Z,10.20
2019-03-19T11:15:10.680Z,10.00
2019-03-19T11:17:39.407Z,10.10
2019-03-19T11:20:10.901Z,9.90
2019-03-19T11:22:39.569Z,9.80
2019-03-19T11:25:11.468Z,9.90
2019-03-19T11:27:43.118Z,9.80
2019-03-19T11:30:15.032Z,9.70
2019-03-19T11:32:43.777Z,9.80
2019-03-19T11:35:14.104Z,10.20
2019-03-19T11:37:42.904Z,11.40
2019-03-19T11:40:13.817Z,11.70
2019-03-19T11:45:25.994Z,11.80
2019-03-19T11:47:55.335Z,12.70
2019-03-19T11:50:58.598Z,13.60
2019-03-19T11:53:27.958Z,13.80
2019-03-19T11:55:57.311Z,13.90
2019-03-19T11:58:26.617Z,14.20
2019-03-19T12:01:38.415Z,14.50
2019-03-19T12:04:07.918Z,14.10
2019-03-19T12:06:37.125Z,13.50
2019-03-19T12:15:47.199Z,14.20
2019-03-19T12:18:40.106Z,14.40
2019-03-19T12:24:02.398Z,15.00
2019-03-19T12:26:51.173Z,14.90
2019-03-19T12:32:08.335Z,15.70
2019-03-19T12:38:03.325Z,15.50
2019-03-19T12:40:36.853Z,15.00
2019-03-19T12:43:02.577Z,14.90
2019-03-19T12:45:31.377Z,14.60
2019-03-19T12:48:00.111Z,13.70
2019-03-19T12:50:28.826Z,13.00
2019-03-19T12:52:57.528Z,12.60
2019-03-19T12:55:26.259Z,12.30
2019-03-19T12:57:55.137Z,11.90
2019-03-19T13:02:56.273Z,11.30
2019-03-19T13:05:25.082Z,11.20
2019-03-19T13:06:07.814Z,11.70
2019-03-19T13:07:53.855Z,11.10
2019-03-19T13:10:24.439Z,11.20
2019-03-19T13:12:53.157Z,11.70
2019-03-19T13:15:22.098Z,12.00
2019-03-19T13:17:50.857Z,13.30
2019-03-19T13:20:20.422Z,15.00
2019-03-19T13:22:49.123Z,14.30
2019-03-19T13:25:19.972Z,13.60
2019-03-19T13:27:48.695Z,14.20
2019-03-19T13:30:20.297Z,15.10
2019-03-19T13:32:49.023Z,15.10
2019-03-19T13:35:17.713Z,15.10
2019-03-19T13:37:46.443Z,14.10
2019-03-19T13:40:17.124Z,12.60
2019-03-19T13:45:25.279Z,12.40
2019-03-19T13:50:52.252Z,14.40
2019-03-19T13:53:28.705Z,14.30
2019-03-19T13:58:34.078Z,13.10
2019-03-19T14:01:05.006Z,13.20
2019-03-19T14:03:34.412Z,13.70
2019-03-19T14:06:03.713Z,12.80
2019-03-19T14:17:23.369Z,12.80
2019-03-19T14:19:52.065Z,13.70
2019-03-19T14:22:20.813Z,14.50
2019-03-19T14:24:49.468Z,14.00
2019-03-19T14:27:18.237Z,12.50
2019-03-19T14:29:46.963Z,11.90
2019-03-19T14:32:15.773Z,12.00
2019-03-19T14:34:44.498Z,12.50
2019-03-19T14:37:13.205Z,12.80
2019-03-19T14:39:41.882Z,12.70
2019-03-19T14:42:10.632Z,12.90
2019-03-19T14:44:39.331Z,12.50
2019-03-19T14:47:08.066Z,12.00
2019-03-19T14:49:46.293Z,11.80
2019-03-19T14:55:20.625Z,11.50
2019-03-19T14:57:51.591Z,11.50
2019-03-19T15:00:23.628Z,11.40
2019-03-19T15:02:53.161Z,11.10
2019-03-19T15:08:14.176Z,11.00
2019-03-19T15:10:42.961Z,11.00
2019-03-19T15:13:11.682Z,10.90
2019-03-19T15:15:41.761Z,11.00
2019-03-19T15:18:10.567Z,11.10
2019-03-19T15:20:39.298Z,11.30
2019-03-19T15:23:08.069Z,11.40
2019-03-19T15:25:36.907Z,11.40
2019-03-19T15:28:05.866Z,11.40
2019-03-19T15:30:34.647Z,11.30
2019-03-19T15:33:03.367Z,11.20
2019-03-19T15:35:32.207Z,11.10
2019-03-19T15:38:00.993Z,11.00
2019-03-19T15:40:29.827Z,11.00
2019-03-19T15:43:00.845Z,11.00
2019-03-19T15:45:30.864Z,11.10
2019-03-19T15:48:00.668Z,11.10
2019-03-19T15:50:29.401Z,11.00
2019-03-19T15:52:58.174Z,10.90
2019-03-19T15:55:26.930Z,10.80
2019-03-19T15:57:55.627Z,10.70
2019-03-19T16:00:24.432Z,10.70
2019-03-19T16:02:53.224Z,10.60
2019-03-19T16:05:22.048Z,10.50
2019-03-19T16:07:50.802Z,10.50
2019-03-19T16:10:19.728Z,10.30
2019-03-19T16:12:48.505Z,10.20
2019-03-19T16:15:19.430Z,10.20
2019-03-19T16:17:48.312Z,10.30
2019-03-19T16:20:18.140Z,10.30
2019-03-19T16:22:46.917Z,10.30
2019-03-19T16:25:15.829Z,10.30
2019-03-19T16:27:44.460Z,10.20
2019-03-19T16:30:15.656Z,10.10
2019-03-19T16:32:44.485Z,10.00
2019-03-19T16:35:13.831Z,10.00
2019-03-19T16:37:42.640Z,9.90
2019-03-19T16:40:14.109Z,9.70
2019-03-19T16:42:42.867Z,9.60
2019-03-19T16:45:12.440Z,9.50
2019-03-19T16:47:41.164Z,9.40
2019-03-19T16:50:12.780Z,9.30
2019-03-19T16:52:41.534Z,9.30
2019-03-19T16:55:13.164Z,9.20
2019-03-19T16:57:41.884Z,9.20
2019-03-19T17:00:13.701Z,9.10
2019-03-19T17:02:42.327Z,9.10
2019-03-19T17:05:12.108Z,9.00
2019-03-19T17:07:40.922Z,8.90
2019-03-19T17:10:12.454Z,8.80
2019-03-19T17:12:42.072Z,8.80
2019-03-19T17:15:13.583Z,8.70
2019-03-19T17:17:42.192Z,8.60
2019-03-19T17:20:13.134Z,8.50
2019-03-19T17:22:41.895Z,8.30
2019-03-19T17:25:13.193Z,8.20
2019-03-19T17:27:41.933Z,8.10
2019-03-19T17:30:13.604Z,7.90
2019-03-19T17:32:42.370Z,7.70
2019-03-19T17:35:11.097Z,7.60
2019-03-19T17:37:39.877Z,7.40
2019-03-19T17:40:11.016Z,7.20
2019-03-19T17:42:39.741Z,7.00
2019-03-19T17:45:10.388Z,6.90
2019-03-19T17:47:39.100Z,6.70
2019-03-19T17:50:10.641Z,6.70
2019-03-19T17:52:39.350Z,6.50
2019-03-19T17:55:10.938Z,6.40
2019-03-19T17:57:39.729Z,6.20
2019-03-19T18:00:11.385Z,6.10
2019-03-19T18:02:40.193Z,6.10
2019-03-19T18:05:10.241Z,6.00
2019-03-19T18:07:38.991Z,6.00
2019-03-19T18:10:10.103Z,5.90
2019-03-19T18:12:38.859Z,5.90
2019-03-19T18:15:10.198Z,5.90
2019-03-19T18:17:39.016Z,5.80
2019-03-19T18:20:10.533Z,5.70
2019-03-19T18:22:39.258Z,5.70
2019-03-19T18:25:10.477Z,5.70
2019-03-19T18:27:39.217Z,5.60
2019-03-19T18:30:11.145Z,5.50
2019-03-19T18:32:39.826Z,5.40
2019-03-19T18:35:08.589Z,5.30
2019-03-19T18:37:37.391Z,5.30
2019-03-19T18:40:08.842Z,5.30
2019-03-19T18:42:37.666Z,5.40
2019-03-19T18:45:08.890Z,5.40
2019-03-19T18:47:37.589Z,5.40
2019-03-19T18:50:09.433Z,5.50
2019-03-19T18:52:38.254Z,5.40
2019-03-19T18:55:08.311Z,5.50
2019-03-19T18:57:37.096Z,5.60
2019-03-19T19:00:08.855Z,5.60
2019-03-19T19:02:48.736Z,5.60
2019-03-19T19:05:11.135Z,5.50
2019-03-19T19:07:39.986Z,5.50
2019-03-19T19:10:11.324Z,5.50
2019-03-19T19:12:40.149Z,5.50
2019-03-19T19:15:11.828Z,5.40
2019-03-19T19:17:40.469Z,5.30
2019-03-19T19:20:12.004Z,5.20
2019-03-19T19:22:41.802Z,5.10
2019-03-19T19:25:12.952Z,5.00
2019-03-19T19:27:41.807Z,5.00
2019-03-19T19:30:13.604Z,4.90
2019-03-19T19:32:42.370Z,4.80
2019-03-19T19:35:11.422Z,4.70
2019-03-19T19:37:40.066Z,4.60
2019-03-19T19:40:11.821Z,4.50
2019-03-19T19:42:40.647Z,4.50
2019-03-19T19:45:11.855Z,4.40
2019-03-19T19:47:40.646Z,4.30
2019-03-19T19:50:12.275Z,4.20
2019-03-19T19:52:40.955Z,4.10
2019-03-19T19:55:11.458Z,4.10
2019-03-19T19:57:40.528Z,4.10
2019-03-19T20:00:12.136Z,4.10
2019-03-19T20:02:40.907Z,4.20
2019-03-19T20:05:09.807Z,4.30
2019-03-19T20:07:38.532Z,4.30
2019-03-19T20:10:10.047Z,4.30
2019-03-19T20:12:38.845Z,4.30
2019-03-19T20:15:09.893Z,4.30
2019-03-19T20:17:38.634Z,4.60
2019-03-19T20:20:10.502Z,4.60
2019-03-19T20:22:39.239Z,4.70
2019-03-19T20:25:08.383Z,4.60
2019-03-19T20:27:37.255Z,4.50
2019-03-19T20:30:08.868Z,4.40
2019-03-19T20:32:37.545Z,4.30
2019-03-19T20:35:09.159Z,4.20
2019-03-19T20:37:37.896Z,4.10
2019-03-19T20:40:09.820Z,4.00
2019-03-19T20:42:38.571Z,3.90
2019-03-19T20:45:10.387Z,3.90
2019-03-19T20:47:39.228Z,3.90
2019-03-19T20:50:11.007Z,4.00
2019-03-19T20:52:39.801Z,4.00
2019-03-19T20:55:08.575Z,4.00
2019-03-19T20:57:37.318Z,4.00
2019-03-19T21:00:08.874Z,4.10
2019-03-19T21:02:37.663Z,4.10
2019-03-19T21:05:06.624Z,4.20
2019-03-19T21:07:35.477Z,4.30
2019-03-19T21:10:07.316Z,4.30
2019-03-19T21:12:36.072Z,4.30
2019-03-19T21:15:08.004Z,4.20
2019-03-19T21:17:36.821Z,4.10
2019-03-19T21:20:06.918Z,4.00
2019-03-19T21:22:35.616Z,3.80
2019-03-19T21:25:05.513Z,3.70
2019-03-19T21:27:34.259Z,3.60
2019-03-19T21:30:03.935Z,3.50
2019-03-19T21:32:32.831Z,3.40
2019-03-19T21:35:01.618Z,3.40
2019-03-19T21:37:30.360Z,3.40
2019-03-19T21:39:59.211Z,3.40
2019-03-19T21:42:28.039Z,3.50
2019-03-19T21:44:56.823Z,3.60
2019-03-19T21:47:25.669Z,3.60
2019-03-19T21:49:54.372Z,3.50
2019-03-19T21:52:23.052Z,3.40
2019-03-19T21:54:51.731Z,3.20
2019-03-19T21:57:20.403Z,3.00
2019-03-19T21:59:49.157Z,2.90
2019-03-19T22:02:17.949Z,2.90
2019-03-19T22:04:46.683Z,3.10
2019-03-19T22:07:15.359Z,3.00
2019-03-19T22:09:44.102Z,2.90
2019-03-19T22:12:12.878Z,2.90
2019-03-19T22:14:41.639Z,2.80
2019-03-19T22:17:10.347Z,2.70
2019-03-19T22:19:40.210Z,2.70
2019-03-19T22:22:09.068Z,2.80
2019-03-19T22:24:37.721Z,3.10
2019-03-19T22:27:06.500Z,3.10
2019-03-19T22:29:35.267Z,3.20
2019-03-19T22:32:03.977Z,3.20
2019-03-19T22:34:32.738Z,3.20
2019-03-19T22:37:01.476Z,3.10
2019-03-19T22:39:30.212Z,3.10
2019-03-19T22:41:58.929Z,3.00
2019-03-19T22:44:27.606Z,2.90
2019-03-19T22:46:56.355Z,2.90
2019-03-19T22:49:24.973Z,2.90
2019-03-19T22:51:53.545Z,3.10
2019-03-19T22:54:22.315Z,3.10
2019-03-19T22:56:50.967Z,3.10
2019-03-19T22:59:19.623Z,3.10
2019-03-19T23:01:48.370Z,3.30
2019-03-19T23:04:26.901Z,3.40
2019-03-19T23:06:47.473Z,3.30
2019-03-19T23:09:16.446Z,3.10
2019-03-19T23:11:45.087Z,3.00
2019-03-19T23:14:13.793Z,3.00
2019-03-19T23:16:42.557Z,2.90
2019-03-19T23:19:11.266Z,2.80
2019-03-19T23:21:40.040Z,2.80
2019-03-19T23:24:08.786Z,2.80
2019-03-19T23:26:37.446Z,2.90
2019-03-19T23:29:06.151Z,2.80
2019-03-19T23:31:34.953Z,2.60
2019-03-19T23:34:03.617Z,2.50
2019-03-19T23:36:32.365Z,2.40
2019-03-19T23:39:01.140Z,2.40
2019-03-19T23:41:29.842Z,2.50
2019-03-19T23:43:58.453Z,2.60
2019-03-19T23:46:27.168Z,2.80
2019-03-19T23:48:55.844Z,3.00
2019-03-19T23:51:24.496Z,3.10
2019-03-19T23:53:53.161Z,3.10
2019-03-19T23:56:21.868Z,3.10
2019-03-19T23:58:50.446Z,3.10
